createdAt,value
2022-10-06T00:01:35.260Z,101530.88
2022-10-06T00:04:58.174Z,101528.34
2022-10-06T00:08:20.347Z,101529.44
2022-10-06T00:11:42.117Z,101540.19
2022-10-06T00:15:03.233Z,101539.91
2022-10-06T00:18:25.105Z,101539.19
2022-10-06T00:21:48.202Z,101544.44
2022-10-06T00:25:11.279Z,101544.16
2022-10-06T00:28:33.352Z,101542.16
2022-10-06T00:31:55.495Z,101540.31
2022-10-06T00:35:17.513Z,101549.22
2022-10-06T00:38:40.495Z,101556.41
2022-10-06T00:42:05.617Z,101553.91
2022-10-06T00:45:32.662Z,101551.22
2022-10-06T00:48:59.744Z,101549.34
2022-10-06T00:52:26.454Z,101551.03
2022-10-06T00:55:49.812Z,101555.59
2022-10-06T00:59:13.760Z,101558.28
2022-10-06T01:02:40.277Z,101559.09
2022-10-06T01:06:03.635Z,101572.41
2022-10-06T01:09:25.877Z,101570.13
2022-10-06T01:12:49.156Z,101573.28
2022-10-06T01:16:17.805Z,101575.78
2022-10-06T01:19:49.182Z,101581.16
2022-10-06T01:23:13.182Z,101595.44
2022-10-06T01:26:39.257Z,101577.66
2022-10-06T01:30:01.690Z,101595.44
2022-10-06T01:33:24.716Z,101588.38
2022-10-06T01:36:47.267Z,101586.41
2022-10-06T01:40:11.491Z,101580.75
2022-10-06T01:43:33.264Z,101595.00
2022-10-06T01:46:55.002Z,101580.75
2022-10-06T01:50:17.129Z,101582.28
2022-10-06T01:53:38.587Z,101582.00
2022-10-06T01:57:01.297Z,101584.53
2022-10-06T02:00:23.139Z,101586.94
2022-10-06T02:03:45.058Z,101585.94
2022-10-06T02:07:07.029Z,101588.50
2022-10-06T02:10:36.716Z,101596.41
2022-10-06T02:14:02.587Z,101593.72
2022-10-06T02:17:25.536Z,101593.72
2022-10-06T02:20:47.739Z,101598.38
2022-10-06T02:24:09.344Z,101602.91
2022-10-06T02:27:31.658Z,101604.91
2022-10-06T02:30:55.545Z,101615.66
2022-10-06T02:34:17.398Z,101613.38
2022-10-06T02:37:40.025Z,101621.84
2022-10-06T02:41:02.645Z,101629.78
2022-10-06T02:44:25.288Z,101624.53
2022-10-06T02:47:50.573Z,101631.88
2022-10-06T02:51:13.689Z,101636.56
2022-10-06T02:54:37.471Z,101644.44
2022-10-06T02:57:58.717Z,101649.00
2022-10-06T03:01:24.000Z,101653.50
2022-10-06T03:04:48.316Z,101653.50
2022-10-06T03:08:11.550Z,101660.56
2022-10-06T03:11:35.438Z,101662.28
2022-10-06T03:14:57.969Z,101667.38
2022-10-06T03:18:19.757Z,101669.91
2022-10-06T03:21:44.575Z,101670.75
2022-10-06T03:25:08.977Z,101680.66
2022-10-06T03:28:31.574Z,101682.06
2022-10-06T03:31:53.687Z,101685.44
2022-10-06T03:35:15.584Z,101695.91
2022-10-06T03:38:39.403Z,101705.69
2022-10-06T03:42:01.223Z,101722.38
2022-10-06T03:45:22.899Z,101722.25
2022-10-06T03:48:45.448Z,101748.13
2022-10-06T03:52:07.169Z,101746.44
2022-10-06T03:55:33.173Z,101783.47
2022-10-06T03:58:56.571Z,101802.78
2022-10-06T04:02:18.386Z,101814.09
2022-10-06T04:05:41.026Z,101806.72
2022-10-06T04:09:03.544Z,101814.91
2022-10-06T04:12:27.002Z,101810.69
2022-10-06T04:15:49.849Z,101810.06
2022-10-06T04:19:13.757Z,101824.47
2022-10-06T04:22:38.863Z,101823.94
2022-10-06T04:26:02.741Z,101850.72
2022-10-06T04:29:25.961Z,101845.25
2022-10-06T04:32:51.047Z,101861.75
2022-10-06T04:36:15.670Z,101851.13
2022-10-06T04:39:37.876Z,101833.91
2022-10-06T04:43:00.388Z,101841.53
2022-10-06T04:46:42.034Z,101852.09
2022-10-06T04:50:05.205Z,101860.16
2022-10-06T04:53:27.456Z,101880.09
2022-10-06T04:56:51.718Z,101877.53
2022-10-06T05:00:26.769Z,101895.84
2022-10-06T05:03:52.361Z,101889.94
2022-10-06T05:07:13.852Z,101914.09
2022-10-06T05:10:35.839Z,101895.56
2022-10-06T05:13:59.517Z,101908.97
2022-10-06T05:17:23.314Z,101915.06
2022-10-06T05:20:56.351Z,101941.19
2022-10-06T05:24:17.978Z,101945.69
2022-10-06T05:27:39.731Z,101944.97
2022-10-06T05:31:05.317Z,101950.84
2022-10-06T05:34:28.267Z,101961.31
2022-10-06T05:37:52.009Z,101965.53
2022-10-06T05:41:15.773Z,101972.44
2022-10-06T05:44:37.951Z,101981.59
2022-10-06T05:48:04.450Z,101997.69
2022-10-06T05:51:31.027Z,102015.50
2022-10-06T05:54:55.109Z,102011.84
2022-10-06T05:58:18.564Z,102037.06
2022-10-06T06:01:42.237Z,102039.84
2022-10-06T06:05:30.078Z,102055.09
2022-10-06T06:08:54.901Z,102053.25
2022-10-06T06:12:18.187Z,102064.00
2022-10-06T06:16:05.981Z,102082.66
2022-10-06T06:19:29.271Z,102086.41
2022-10-06T06:22:53.382Z,102091.53
2022-10-06T06:26:19.485Z,102108.38
2022-10-06T06:29:45.685Z,102122.97
2022-10-06T06:33:07.431Z,102126.88
2022-10-06T06:36:32.610Z,102135.41
2022-10-06T06:39:54.063Z,102151.50
2022-10-06T06:43:16.479Z,102157.09
2022-10-06T06:47:09.656Z,102170.53
2022-10-06T06:50:31.574Z,102174.19
2022-10-06T06:53:54.400Z,102178.94
2022-10-06T06:57:16.543Z,102184.53
2022-10-06T07:00:38.669Z,102198.66
2022-10-06T07:04:02.375Z,102207.34
2022-10-06T07:07:27.858Z,102212.94
2022-10-06T07:10:49.821Z,102222.94
2022-10-06T07:14:12.928Z,102235.72
2022-10-06T07:17:55.175Z,102233.66
2022-10-06T07:21:36.967Z,102237.56
2022-10-06T07:25:20.458Z,102246.31
2022-10-06T07:28:49.487Z,102253.50
2022-10-06T07:32:12.113Z,102266.06
2022-10-06T07:35:33.892Z,102268.13
2022-10-06T07:38:57.541Z,102267.16
2022-10-06T07:42:19.362Z,102272.91
2022-10-06T07:45:42.150Z,102278.75
2022-10-06T07:49:10.039Z,102276.19
2022-10-06T07:52:32.475Z,102292.16
2022-10-06T07:55:55.567Z,102286.06
2022-10-06T07:59:22.185Z,102284.97
2022-10-06T08:02:44.386Z,102294.50
2022-10-06T08:06:06.333Z,102301.94
2022-10-06T08:09:27.790Z,102317.19
2022-10-06T08:12:51.022Z,102317.53
2022-10-06T08:16:14.858Z,102321.09
2022-10-06T08:19:36.332Z,102329.03
2022-10-06T08:22:58.273Z,102349.63
2022-10-06T08:26:21.734Z,102347.34
2022-10-06T08:29:44.554Z,102353.03
2022-10-06T08:33:06.907Z,102361.00
2022-10-06T08:36:32.085Z,102351.97
2022-10-06T08:39:55.157Z,102371.72
2022-10-06T08:43:20.614Z,102375.13
2022-10-06T08:46:50.165Z,102400.25
2022-10-06T08:50:13.250Z,102386.13
2022-10-06T08:53:46.709Z,102406.34
2022-10-06T08:57:17.704Z,102406.09
2022-10-06T09:00:39.457Z,102410.75
2022-10-06T09:04:07.205Z,102405.63
2022-10-06T09:07:35.836Z,102407.34
2022-10-06T09:11:10.383Z,102417.34
2022-10-06T09:14:37.595Z,102412.94
2022-10-06T09:18:03.052Z,102408.31
2022-10-06T09:21:31.553Z,102411.47
2022-10-06T09:24:57.521Z,102434.41
2022-10-06T09:28:19.440Z,102428.94
2022-10-06T09:31:43.302Z,102425.38
2022-10-06T09:35:18.547Z,102441.50
2022-10-06T09:38:54.294Z,102444.41
2022-10-06T09:42:20.336Z,102444.06
2022-10-06T09:45:42.647Z,102450.06
2022-10-06T09:49:16.505Z,102455.19
2022-10-06T09:52:38.137Z,102458.38
2022-10-06T09:56:05.069Z,102462.38
2022-10-06T09:59:39.168Z,102470.31
2022-10-06T10:03:04.114Z,102480.72
2022-10-06T10:06:28.668Z,102480.47
2022-10-06T10:09:50.161Z,102487.41
2022-10-06T10:13:22.116Z,102488.88
2022-10-06T10:16:44.266Z,102495.13
2022-10-06T10:20:20.783Z,102494.63
2022-10-06T10:23:55.294Z,102496.34
2022-10-06T10:27:21.678Z,102492.44
2022-10-06T10:30:54.961Z,102491.72
2022-10-06T10:34:30.430Z,102507.44
2022-10-06T10:37:58.795Z,102499.38
2022-10-06T10:41:25.503Z,102507.69
2022-10-06T10:44:52.718Z,102512.69
2022-10-06T10:48:20.424Z,102508.16
2022-10-06T10:51:49.893Z,102516.38
2022-10-06T10:55:23.262Z,102523.47
2022-10-06T10:58:46.876Z,102532.03
2022-10-06T11:02:16.741Z,102538.13
2022-10-06T11:05:57.218Z,102526.00
2022-10-06T11:09:21.410Z,102532.38
2022-10-06T11:13:10.610Z,102530.66
2022-10-06T11:16:41.260Z,102542.44
2022-10-06T11:20:10.620Z,102544.75
2022-10-06T11:23:47.057Z,102542.06
2022-10-06T11:27:24.004Z,102548.88
2022-10-06T11:30:58.079Z,102550.50
2022-10-06T11:34:19.748Z,102550.25
2022-10-06T11:37:47.830Z,102550.22
2022-10-06T11:41:19.559Z,102557.56
2022-10-06T11:44:46.457Z,102551.44
2022-10-06T11:48:29.158Z,102555.56
2022-10-06T11:51:50.733Z,102555.06
2022-10-06T11:55:18.610Z,102560.34
2022-10-06T11:59:10.275Z,102569.59
2022-10-06T12:02:38.613Z,102567.50
2022-10-06T12:06:02.655Z,102576.06
2022-10-06T12:09:44.811Z,102575.09
2022-10-06T12:13:51.313Z,102579.13
2022-10-06T12:17:18.345Z,102581.81
2022-10-06T12:20:53.341Z,102585.34
2022-10-06T12:24:26.685Z,102568.63
2022-10-06T12:28:04.210Z,102572.41
2022-10-06T12:31:41.329Z,102568.78
2022-10-06T12:35:23.840Z,102564.63
2022-10-06T12:39:01.374Z,102588.72
2022-10-06T12:42:31.215Z,102569.41
2022-10-06T12:45:58.919Z,102579.41
2022-10-06T12:49:42.744Z,102587.88
2022-10-06T12:53:12.910Z,102593.97
2022-10-06T12:56:36.504Z,102595.06
2022-10-06T12:59:58.138Z,102605.59
2022-10-06T13:03:26.397Z,102597.50
2022-10-06T13:06:50.572Z,102610.72
2022-10-06T13:10:20.215Z,102600.94
2022-10-06T13:13:48.588Z,102604.66
2022-10-06T13:17:10.733Z,102601.09
2022-10-06T13:20:39.611Z,102602.44
2022-10-06T13:24:01.009Z,102611.84
2022-10-06T13:27:24.199Z,102617.81
2022-10-06T13:30:51.519Z,102621.13
2022-10-06T13:34:15.094Z,102618.78
2022-10-06T13:37:37.166Z,102620.50
2022-10-06T13:41:07.606Z,102626.16
2022-10-06T13:44:36.833Z,102624.09
2022-10-06T13:48:07.159Z,102631.06
2022-10-06T13:51:31.210Z,102628.63
2022-10-06T13:54:55.345Z,102624.72
2022-10-06T13:58:19.653Z,102634.28
2022-10-06T14:01:43.379Z,102638.31
2022-10-06T14:05:27.490Z,102644.53
2022-10-06T14:08:52.439Z,102629.00
2022-10-06T14:12:16.363Z,102633.91
2022-10-06T14:15:46.297Z,102635.25
2022-10-06T14:19:32.825Z,102637.34
2022-10-06T14:22:54.265Z,102629.63
2022-10-06T14:26:17.883Z,102635.00
2022-10-06T14:29:41.282Z,102639.72
2022-10-06T14:33:02.942Z,102652.34
2022-10-06T14:36:28.245Z,102654.31
2022-10-06T14:39:51.595Z,102654.41
2022-10-06T14:43:13.277Z,102649.75
2022-10-06T14:46:34.934Z,102656.22
2022-10-06T14:49:56.309Z,102650.09
2022-10-06T14:53:18.985Z,102655.97
2022-10-06T14:56:42.240Z,102656.59
2022-10-06T15:00:05.474Z,102654.75
2022-10-06T15:03:27.150Z,102659.66
2022-10-06T15:07:06.373Z,102650.06
2022-10-06T15:10:30.210Z,102657.88
2022-10-06T15:13:53.877Z,102661.56
2022-10-06T15:17:15.615Z,102666.94
2022-10-06T15:20:38.140Z,102665.25
2022-10-06T15:24:01.637Z,102661.41
2022-10-06T15:27:42.266Z,102656.38
2022-10-06T15:31:03.994Z,102659.56
2022-10-06T15:34:27.603Z,102652.03
2022-10-06T15:37:49.193Z,102660.38
2022-10-06T15:41:11.221Z,102666.13
2022-10-06T15:44:34.920Z,102672.28
2022-10-06T15:47:56.487Z,102656.63
2022-10-06T15:51:18.660Z,102672.59
2022-10-06T15:54:41.762Z,102676.34
2022-10-06T15:58:03.181Z,102676.66
2022-10-06T16:01:36.272Z,102675.50
2022-10-06T16:05:18.752Z,102673.84
2022-10-06T16:08:40.435Z,102682.91
2022-10-06T16:12:03.528Z,102679.47
2022-10-06T16:15:25.353Z,102681.47
2022-10-06T16:18:48.751Z,102692.22
2022-10-06T16:22:13.050Z,102680.84
2022-10-06T16:25:34.650Z,102694.69
2022-10-06T16:28:56.673Z,102694.91
2022-10-06T16:32:18.118Z,102704.16
2022-10-06T16:35:40.968Z,102699.19
2022-10-06T16:39:02.955Z,102706.81
2022-10-06T16:42:25.186Z,102716.16
2022-10-06T16:45:59.753Z,102722.91
2022-10-06T16:49:24.438Z,102721.22
2022-10-06T16:52:47.557Z,102720.66
2022-10-06T16:56:13.419Z,102725.28
2022-10-06T16:59:35.010Z,102728.94
2022-10-06T17:02:56.916Z,102730.88
2022-10-06T17:06:19.230Z,102728.31
2022-10-06T17:09:56.057Z,102731.84
2022-10-06T17:13:23.936Z,102741.69
2022-10-06T17:16:47.889Z,102750.53
2022-10-06T17:20:10.467Z,102748.63
2022-10-06T17:23:32.424Z,102752.84
2022-10-06T17:26:55.558Z,102752.84
2022-10-06T17:30:17.091Z,102757.06
2022-10-06T17:33:40.868Z,102749.78
2022-10-06T17:37:03.163Z,102754.06
2022-10-06T17:40:26.077Z,102754.63
2022-10-06T17:43:50.762Z,102746.44
2022-10-06T17:47:12.717Z,102754.97
2022-10-06T17:50:34.669Z,102750.31
2022-10-06T17:53:58.303Z,102753.47
2022-10-06T17:57:20.438Z,102756.72
2022-10-06T18:00:43.498Z,102759.94
2022-10-06T18:04:06.773Z,102760.44
2022-10-06T18:07:28.520Z,102759.97
2022-10-06T18:11:08.239Z,102757.66
2022-10-06T18:14:33.631Z,102752.97
2022-10-06T18:17:56.329Z,102761.44
2022-10-06T18:21:18.376Z,102770.78
2022-10-06T18:24:41.344Z,102765.81
2022-10-06T18:28:03.014Z,102774.09
2022-10-06T18:31:24.726Z,102774.47
2022-10-06T18:38:31.477Z,102765.31
2022-10-06T18:41:53.646Z,102764.84
2022-10-06T18:45:36.762Z,102764.31
2022-10-06T18:49:05.324Z,102766.41
2022-10-06T18:52:28.388Z,102770.19
2022-10-06T18:55:49.540Z,102772.19
2022-10-06T18:59:13.869Z,102781.06
2022-10-06T19:02:35.258Z,102773.22
2022-10-06T19:05:57.122Z,102783.03
2022-10-06T19:09:22.697Z,102782.25
2022-10-06T19:12:44.177Z,102789.50
2022-10-06T19:16:05.614Z,102784.34
2022-10-06T19:19:28.687Z,102790.03
2022-10-06T19:22:50.115Z,102790.19
2022-10-06T19:26:13.755Z,102786.16
2022-10-06T19:29:37.507Z,102789.84
2022-10-06T19:32:59.270Z,102789.16
2022-10-06T19:36:20.947Z,102790.19
2022-10-06T19:39:45.291Z,102796.53
2022-10-06T19:43:08.074Z,102793.03
2022-10-06T19:46:29.537Z,102801.22
2022-10-06T19:49:51.422Z,102796.88
2022-10-06T19:53:12.814Z,102804.22
2022-10-06T19:56:34.698Z,102804.28
2022-10-06T19:59:57.472Z,102809.78
2022-10-06T20:03:20.191Z,102810.75
2022-10-06T20:06:42.299Z,102810.91
2022-10-06T20:10:04.153Z,102809.25
2022-10-06T20:13:25.796Z,102816.59
2022-10-06T20:16:50.936Z,102821.28
2022-10-06T20:20:13.755Z,102825.03
2022-10-06T20:23:35.394Z,102824.28
2022-10-06T20:26:56.911Z,102815.66
2022-10-06T20:30:18.745Z,102816.59
2022-10-06T20:33:43.437Z,102821.25
2022-10-06T20:37:06.377Z,102828.53
2022-10-06T20:40:49.103Z,102823.53
2022-10-06T20:44:10.691Z,102823.88
2022-10-06T20:47:32.061Z,102826.91
2022-10-06T20:50:54.851Z,102832.47
2022-10-06T20:54:17.341Z,102830.13
2022-10-06T20:57:38.992Z,102839.28
2022-10-06T21:01:06.043Z,102841.22
2022-10-06T21:04:27.697Z,102840.50
2022-10-06T21:07:50.607Z,102839.88
2022-10-06T21:11:13.212Z,102848.13
2022-10-06T21:14:36.174Z,102845.84
2022-10-06T21:17:57.667Z,102840.81
2022-10-06T21:21:19.326Z,102835.72
2022-10-06T21:24:42.261Z,102841.34
2022-10-06T21:28:04.676Z,102840.72
2022-10-06T21:31:28.385Z,102835.69
2022-10-06T21:34:50.318Z,102835.97
2022-10-06T21:38:12.663Z,102837.22
2022-10-06T21:41:38.885Z,102844.66
2022-10-06T21:45:00.639Z,102831.69
2022-10-06T21:48:22.147Z,102839.03
2022-10-06T21:51:46.214Z,102832.16
2022-10-06T21:55:08.630Z,102837.63
2022-10-06T21:58:31.242Z,102838.91
2022-10-06T22:01:52.723Z,102830.34
2022-10-06T22:05:14.606Z,102826.22
2022-10-06T22:08:38.565Z,102818.47
2022-10-06T22:12:00.061Z,102830.13
2022-10-06T22:15:22.815Z,102833.13
2022-10-06T22:18:44.133Z,102820.91
2022-10-06T22:22:05.262Z,102818.44
2022-10-06T22:25:26.581Z,102817.66
2022-10-06T22:28:49.652Z,102816.16
2022-10-06T22:32:12.526Z,102818.22
2022-10-06T22:35:33.816Z,102811.16
2022-10-06T22:38:55.786Z,102811.31
2022-10-06T22:42:17.368Z,102808.94
2022-10-06T22:45:38.466Z,102816.22
2022-10-06T22:49:01.329Z,102808.38
2022-10-06T22:52:22.834Z,102806.78
2022-10-06T22:55:44.314Z,102807.88
2022-10-06T22:59:05.781Z,102806.28
2022-10-06T23:02:27.238Z,102802.97
2022-10-06T23:05:57.070Z,102804.00
2022-10-06T23:09:18.412Z,102806.84
2022-10-06T23:12:40.194Z,102791.97
2022-10-06T23:16:07.205Z,102795.69
2022-10-06T23:19:29.322Z,102791.34
2022-10-06T23:22:52.008Z,102786.25
2022-10-06T23:26:15.584Z,102793.47
2022-10-06T23:29:37.534Z,102786.59
2022-10-06T23:32:58.816Z,102786.66
2022-10-06T23:36:21.426Z,102786.84
2022-10-06T23:39:44.233Z,102790.56
2022-10-06T23:43:05.573Z,102793.25
2022-10-06T23:46:26.911Z,102797.84
2022-10-06T23:49:48.497Z,102806.88
2022-10-06T23:53:10.201Z,102801.69
2022-10-06T23:56:32.770Z,102802.72
2022-10-06T23:59:54.538Z,102810.88
